sensor_id;sensor_type;location;lat;lon;timestamp;pressure;altitude;pressure_sealevel;temperature;humidity
46778;BME280;32536;47.128;8.746;2024-01-07T00:00:07;90705.84;;;5.18;57.22
46778;BME280;32536;47.128;8.746;2024-01-07T00:02:34;90712.28;;;5.20;56.97
46778;BME280;32536;47.128;8.746;2024-01-07T00:05:02;90713.03;;;5.21;56.72
46778;BME280;32536;47.128;8.746;2024-01-07T00:07:29;90707.69;;;5.24;57.10
46778;BME280;32536;47.128;8.746;2024-01-07T00:09:56;90711.84;;;5.25;57.01
46778;BME280;32536;47.128;8.746;2024-01-07T00:12:22;90711.84;;;5.25;57.32
46778;BME280;32536;47.128;8.746;2024-01-07T00:14:50;90708.81;;;5.23;57.24
46778;BME280;32536;47.128;8.746;2024-01-07T00:17:17;90711.13;;;5.21;56.81
46778;BME280;32536;47.128;8.746;2024-01-07T00:19:44;90711.88;;;5.22;57.07
46778;BME280;32536;47.128;8.746;2024-01-07T00:22:11;90711.88;;;5.22;56.84
46778;BME280;32536;47.128;8.746;2024-01-07T00:24:37;90711.50;;;5.20;56.78
46778;BME280;32536;47.128;8.746;2024-01-07T00:27:04;90711.53;;;5.16;56.90
46778;BME280;32536;47.128;8.746;2024-01-07T00:29:31;90705.13;;;5.13;57.15
46778;BME280;32536;47.128;8.746;2024-01-07T00:32:00;90704.34;;;5.17;57.12
46778;BME280;32536;47.128;8.746;2024-01-07T00:34:27;90704.31;;;5.20;57.42
46778;BME280;32536;47.128;8.746;2024-01-07T00:36:54;90706.53;;;5.25;57.36
46778;BME280;32536;47.128;8.746;2024-01-07T00:39:21;90706.50;;;5.29;56.50
46778;BME280;32536;47.128;8.746;2024-01-07T00:41:48;90710.72;;;5.26;56.79
46778;BME280;32536;47.128;8.746;2024-01-07T00:44:14;90707.69;;;5.24;56.86
46778;BME280;32536;47.128;8.746;2024-01-07T00:46:41;90707.34;;;5.19;56.96
46778;BME280;32536;47.128;8.746;2024-01-07T00:49:08;90706.63;;;5.15;56.96
46778;BME280;32536;47.128;8.746;2024-01-07T00:51:35;90711.22;;;5.10;57.19
46778;BME280;32536;47.128;8.746;2024-01-07T00:54:01;90707.44;;;5.11;57.12
46778;BME280;32536;47.128;8.746;2024-01-07T00:56:28;90711.94;;;5.15;56.99
46778;BME280;32536;47.128;8.746;2024-01-07T00:58:56;90715.31;;;5.19;57.12
46778;BME280;32536;47.128;8.746;2024-01-07T01:01:23;90714.16;;;5.20;57.10
46778;BME280;32536;47.128;8.746;2024-01-07T01:03:50;90717.94;;;5.22;56.92
46778;BME280;32536;47.128;8.746;2024-01-07T01:06:16;90708.09;;;5.23;57.01
46778;BME280;32536;47.128;8.746;2024-01-07T01:08:43;90717.13;;;5.29;56.81
46778;BME280;32536;47.128;8.746;2024-01-07T01:11:10;90715.22;;;5.29;56.70
46778;BME280;32536;47.128;8.746;2024-01-07T01:13:37;90712.19;;;5.31;56.64
46778;BME280;32536;47.128;8.746;2024-01-07T01:16:04;90714.44;;;5.33;56.45
46778;BME280;32536;47.128;8.746;2024-01-07T01:18:31;90722.47;;;5.25;56.55
46778;BME280;32536;47.128;8.746;2024-01-07T01:20:58;90713.41;;;5.19;56.86
46778;BME280;32536;47.128;8.746;2024-01-07T01:23:24;90721.41;;;5.16;56.89
46778;BME280;32536;47.128;8.746;2024-01-07T01:25:51;90719.94;;;5.11;57.17
46778;BME280;32536;47.128;8.746;2024-01-07T01:28:18;90721.44;;;5.12;56.89
46778;BME280;32536;47.128;8.746;2024-01-07T01:30:45;90727.16;;;5.10;56.92
46778;BME280;32536;47.128;8.746;2024-01-07T01:33:11;90718.06;;;5.08;57.23
46778;BME280;32536;47.128;8.746;2024-01-07T01:35:38;90728.66;;;5.11;56.91
46778;BME280;32536;47.128;8.746;2024-01-07T01:38:05;90725.59;;;5.13;57.02
46778;BME280;32536;47.128;8.746;2024-01-07T01:40:32;90724.81;;;5.16;57.30
46778;BME280;32536;47.128;8.746;2024-01-07T01:43:03;90715.69;;;5.21;57.40
46778;BME280;32536;47.128;8.746;2024-01-07T01:45:30;90721.69;;;5.28;57.46
46778;BME280;32536;47.128;8.746;2024-01-07T01:47:57;90714.81;;;5.35;57.17
46778;BME280;32536;47.128;8.746;2024-01-07T01:50:24;90715.13;;;5.40;56.99
46778;BME280;32536;47.128;8.746;2024-01-07T01:52:51;90718.16;;;5.42;56.84
46778;BME280;32536;47.128;8.746;2024-01-07T01:55:18;90724.19;;;5.43;57.35
46778;BME280;32536;47.128;8.746;2024-01-07T01:57:46;90724.19;;;5.43;57.31
46778;BME280;32536;47.128;8.746;2024-01-07T02:00:13;90721.56;;;5.39;57.36
46778;BME280;32536;47.128;8.746;2024-01-07T02:02:40;90724.25;;;5.36;57.36
46778;BME280;32536;47.128;8.746;2024-01-07T02:05:07;90716.69;;;5.34;56.79
46778;BME280;32536;47.128;8.746;2024-01-07T02:07:33;90729.34;;;5.19;56.69
46778;BME280;32536;47.128;8.746;2024-01-07T02:10:00;90715.41;;;5.08;57.17
46778;BME280;32536;47.128;8.746;2024-01-07T02:12:27;90722.25;;;5.05;57.13
46778;BME280;32536;47.128;8.746;2024-01-07T02:14:54;90726.06;;;5.04;57.26
46778;BME280;32536;47.128;8.746;2024-01-07T02:17:21;90721.91;;;5.03;57.34
46778;BME280;32536;47.128;8.746;2024-01-07T02:19:48;90727.94;;;5.04;57.20
46778;BME280;32536;47.128;8.746;2024-01-07T02:22:14;90728.72;;;5.04;57.31
46778;BME280;32536;47.128;8.746;2024-01-07T02:24:41;90727.97;;;5.00;56.76
46778;BME280;32536;47.128;8.746;2024-01-07T02:27:08;90726.56;;;4.88;56.98
46778;BME280;32536;47.128;8.746;2024-01-07T02:29:35;90727.00;;;4.79;57.50
46778;BME280;32536;47.128;8.746;2024-01-07T02:32:02;90720.56;;;4.77;57.55
46778;BME280;32536;47.128;8.746;2024-01-07T02:34:29;90725.09;;;4.80;57.69
46778;BME280;32536;47.128;8.746;2024-01-07T02:36:55;90725.09;;;4.80;57.38
46778;BME280;32536;47.128;8.746;2024-01-07T02:39:22;90722.81;;;4.78;57.55
46778;BME280;32536;47.128;8.746;2024-01-07T02:41:50;90724.34;;;4.76;57.38
46778;BME280;32536;47.128;8.746;2024-01-07T02:44:17;90723.25;;;4.73;57.60
46778;BME280;32536;47.128;8.746;2024-01-07T02:46:43;90722.91;;;4.71;57.69
46778;BME280;32536;47.128;8.746;2024-01-07T02:49:12;90724.38;;;4.72;57.75
46778;BME280;32536;47.128;8.746;2024-01-07T02:51:39;90725.94;;;4.66;57.59
46778;BME280;32536;47.128;8.746;2024-01-07T02:54:06;90727.13;;;4.61;58.12
46778;BME280;32536;47.128;8.746;2024-01-07T02:56:33;90730.16;;;4.60;57.92
46778;BME280;32536;47.128;8.746;2024-01-07T02:59:00;90721.44;;;4.59;57.86
46778;BME280;32536;47.128;8.746;2024-01-07T03:01:26;90723.72;;;4.61;57.96
46778;BME280;32536;47.128;8.746;2024-01-07T03:03:53;90732.81;;;4.60;57.82
46778;BME280;32536;47.128;8.746;2024-01-07T03:06:20;90737.31;;;4.67;57.96
46778;BME280;32536;47.128;8.746;2024-01-07T03:08:47;90722.13;;;4.71;57.94
46778;BME280;32536;47.128;8.746;2024-01-07T03:11:15;90731.56;;;4.75;57.84
46778;BME280;32536;47.128;8.746;2024-01-07T03:13:42;90727.78;;;4.76;57.70
46778;BME280;32536;47.128;8.746;2024-01-07T03:16:18;90734.22;;;4.75;57.74
46778;BME280;32536;47.128;8.746;2024-01-07T03:18:46;90734.59;;;4.77;57.48
46778;BME280;32536;47.128;8.746;2024-01-07T03:21:19;90734.22;;;4.75;57.82
46778;BME280;32536;47.128;8.746;2024-01-07T03:23:48;90733.09;;;4.76;57.80
46778;BME280;32536;47.128;8.746;2024-01-07T03:26:17;90726.25;;;4.79;57.59
46778;BME280;32536;47.128;8.746;2024-01-07T03:28:44;90734.19;;;4.83;57.96
46778;BME280;32536;47.128;8.746;2024-01-07T03:31:13;90730.38;;;4.87;57.75
46778;BME280;32536;47.128;8.746;2024-01-07T03:33:42;90734.88;;;4.90;57.64
46778;BME280;32536;47.128;8.746;2024-01-07T03:36:11;90732.59;;;4.92;57.55
46778;BME280;32536;47.128;8.746;2024-01-07T03:38:39;90732.56;;;4.96;57.88
46778;BME280;32536;47.128;8.746;2024-01-07T03:41:07;90730.66;;;4.96;57.28
46778;BME280;32536;47.128;8.746;2024-01-07T03:43:34;90730.66;;;4.96;57.39
46778;BME280;32536;47.128;8.746;2024-01-07T03:46:00;90725.72;;;4.99;57.34
46778;BME280;32536;47.128;8.746;2024-01-07T03:48:27;90737.47;;;4.97;57.66
46778;BME280;32536;47.128;8.746;2024-01-07T03:50:54;90731.41;;;5.01;57.85
46778;BME280;32536;47.128;8.746;2024-01-07T03:53:21;90734.03;;;5.04;57.48
46778;BME280;32536;47.128;8.746;2024-01-07T03:55:48;90733.63;;;5.06;57.49
46778;BME280;32536;47.128;8.746;2024-01-07T03:58:14;90734.41;;;5.03;57.35
46778;BME280;32536;47.128;8.746;2024-01-07T04:00:41;90732.53;;;5.00;57.62
46778;BME280;32536;47.128;8.746;2024-01-07T04:03:08;90732.13;;;5.05;57.65
46778;BME280;32536;47.128;8.746;2024-01-07T04:05:35;90735.50;;;5.09;57.55
46778;BME280;32536;47.128;8.746;2024-01-07T04:08:03;90729.81;;;5.10;57.24
46778;BME280;32536;47.128;8.746;2024-01-07T04:10:30;90738.53;;;5.07;57.25
46778;BME280;32536;47.128;8.746;2024-01-07T04:12:57;90730.56;;;5.07;57.46
46778;BME280;32536;47.128;8.746;2024-01-07T04:15:24;90740.44;;;5.10;57.46
46778;BME280;32536;47.128;8.746;2024-01-07T04:17:51;90728.66;;;5.11;57.22
46778;BME280;32536;47.128;8.746;2024-01-07T04:20:17;90737.41;;;5.08;57.38
46778;BME280;32536;47.128;8.746;2024-01-07T04:22:44;90741.59;;;5.06;57.34
46778;BME280;32536;47.128;8.746;2024-01-07T04:25:11;90749.94;;;5.08;57.37
46778;BME280;32536;47.128;8.746;2024-01-07T04:27:38;90747.66;;;5.06;57.75
46778;BME280;32536;47.128;8.746;2024-01-07T04:30:05;90754.47;;;5.07;57.44
46778;BME280;32536;47.128;8.746;2024-01-07T04:32:32;90747.25;;;5.11;57.61
46778;BME280;32536;47.128;8.746;2024-01-07T04:34:59;90749.47;;;5.17;57.45
46778;BME280;32536;47.128;8.746;2024-01-07T04:37:26;90746.41;;;5.22;57.47
46778;BME280;32536;47.128;8.746;2024-01-07T04:39:53;90750.13;;;5.28;57.65
46778;BME280;32536;47.128;8.746;2024-01-07T04:42:19;90749.72;;;5.33;57.23
46778;BME280;32536;47.128;8.746;2024-01-07T04:44:46;90756.47;;;5.41;57.01
46778;BME280;32536;47.128;8.746;2024-01-07T04:47:26;90754.94;;;5.44;57.17
46778;BME280;32536;47.128;8.746;2024-01-07T04:49:57;90748.44;;;5.49;57.19
46778;BME280;32536;47.128;8.746;2024-01-07T04:52:25;90753.72;;;5.52;56.90
46778;BME280;32536;47.128;8.746;2024-01-07T04:54:52;90754.84;;;5.55;57.04
46778;BME280;32536;47.128;8.746;2024-01-07T04:57:20;90757.88;;;5.57;56.96
46778;BME280;32536;47.128;8.746;2024-01-07T04:59:50;90759.38;;;5.58;57.04
46778;BME280;32536;47.128;8.746;2024-01-07T05:02:18;90754.03;;;5.61;56.64
46778;BME280;32536;47.128;8.746;2024-01-07T05:04:45;90758.94;;;5.63;56.69
46778;BME280;32536;47.128;8.746;2024-01-07T05:07:11;90751.72;;;5.64;56.58
46778;BME280;32536;47.128;8.746;2024-01-07T05:09:39;90755.53;;;5.59;56.63
46778;BME280;32536;47.128;8.746;2024-01-07T05:12:06;90768.81;;;5.59;56.76
46778;BME280;32536;47.128;8.746;2024-01-07T05:14:32;90759.38;;;5.58;56.51
46778;BME280;32536;47.128;8.746;2024-01-07T05:16:59;90759.41;;;5.54;56.50
46778;BME280;32536;47.128;8.746;2024-01-07T05:19:26;90756.00;;;5.50;56.82
46778;BME280;32536;47.128;8.746;2024-01-07T05:21:53;90765.13;;;5.49;56.67
46778;BME280;32536;47.128;8.746;2024-01-07T05:24:20;90760.22;;;5.48;57.02
46778;BME280;32536;47.128;8.746;2024-01-07T05:26:46;90770.47;;;5.45;57.10
46778;BME280;32536;47.128;8.746;2024-01-07T05:29:13;90769.72;;;5.45;57.07
46778;BME280;32536;47.128;8.746;2024-01-07T05:31:40;90769.34;;;5.43;57.10
46778;BME280;32536;47.128;8.746;2024-01-07T05:34:07;90762.59;;;5.38;57.33
46778;BME280;32536;47.128;8.746;2024-01-07T05:36:34;90772.88;;;5.33;56.86
46778;BME280;32536;47.128;8.746;2024-01-07T05:39:01;90775.16;;;5.31;56.89
46778;BME280;32536;47.128;8.746;2024-01-07T05:41:28;90774.81;;;5.28;56.99
46778;BME280;32536;47.128;8.746;2024-01-07T05:43:55;90762.66;;;5.27;57.00
46778;BME280;32536;47.128;8.746;2024-01-07T05:46:22;90777.09;;;5.26;56.96
46778;BME280;32536;47.128;8.746;2024-01-07T05:48:49;90775.59;;;5.22;57.21
46778;BME280;32536;47.128;8.746;2024-01-07T05:51:16;90776.38;;;5.19;57.41
46778;BME280;32536;47.128;8.746;2024-01-07T05:53:44;90781.38;;;5.13;57.00
46778;BME280;32536;47.128;8.746;2024-01-07T05:56:12;90777.22;;;5.08;57.22
46778;BME280;32536;47.128;8.746;2024-01-07T05:58:39;90785.59;;;5.07;57.24
46778;BME280;32536;47.128;8.746;2024-01-07T06:01:07;90778.38;;;5.04;56.89
46778;BME280;32536;47.128;8.746;2024-01-07T06:03:34;90784.84;;;5.03;57.34
46778;BME280;32536;47.128;8.746;2024-01-07T06:06:01;90786.75;;;5.02;57.46
46778;BME280;32536;47.128;8.746;2024-01-07T06:08:28;90779.94;;;5.01;57.42
46778;BME280;32536;47.128;8.746;2024-01-07T06:10:55;90790.16;;;4.99;57.69
46778;BME280;32536;47.128;8.746;2024-01-07T06:13:21;90788.66;;;5.02;57.60
46778;BME280;32536;47.128;8.746;2024-01-07T06:15:48;90784.09;;;5.02;57.24
46778;BME280;32536;47.128;8.746;2024-01-07T06:18:15;90793.16;;;5.05;57.70
46778;BME280;32536;47.128;8.746;2024-01-07T06:20:42;90791.63;;;5.07;57.71
46778;BME280;32536;47.128;8.746;2024-01-07T06:23:08;90796.56;;;5.05;57.59
46778;BME280;32536;47.128;8.746;2024-01-07T06:25:35;90795.44;;;5.06;57.63
46778;BME280;32536;47.128;8.746;2024-01-07T06:28:02;90796.22;;;5.03;57.46
46778;BME280;32536;47.128;8.746;2024-01-07T06:30:29;90795.44;;;5.03;57.60
46778;BME280;32536;47.128;8.746;2024-01-07T06:32:56;90801.94;;;4.98;57.46
46778;BME280;32536;47.128;8.746;2024-01-07T06:35:22;90808.03;;;4.91;57.63
46778;BME280;32536;47.128;8.746;2024-01-07T06:37:49;90805.03;;;4.86;57.88
46778;BME280;32536;47.128;8.746;2024-01-07T06:40:16;90816.06;;;4.84;58.13
46778;BME280;32536;47.128;8.746;2024-01-07T06:42:43;90809.59;;;4.85;57.92
46778;BME280;32536;47.128;8.746;2024-01-07T06:45:10;90809.22;;;4.87;57.85
46778;BME280;32536;47.128;8.746;2024-01-07T06:47:37;90812.59;;;4.91;57.89
46778;BME280;32536;47.128;8.746;2024-01-07T06:50:04;90810.28;;;4.96;57.86
46778;BME280;32536;47.128;8.746;2024-01-07T06:52:31;90820.88;;;5.00;57.72
46778;BME280;32536;47.128;8.746;2024-01-07T06:54:58;90820.13;;;5.03;57.81
46778;BME280;32536;47.128;8.746;2024-01-07T06:57:25;90818.56;;;5.09;57.96
46778;BME280;32536;47.128;8.746;2024-01-07T06:59:52;90818.16;;;5.11;57.52
46778;BME280;32536;47.128;8.746;2024-01-07T07:02:20;90827.63;;;5.12;57.62
46778;BME280;32536;47.128;8.746;2024-01-07T07:04:47;90825.38;;;5.10;57.69
46778;BME280;32536;47.128;8.746;2024-01-07T07:07:16;90822.31;;;5.12;57.85
46778;BME280;32536;47.128;8.746;2024-01-07T07:09:43;90824.22;;;5.15;57.57
46778;BME280;32536;47.128;8.746;2024-01-07T07:12:12;90827.63;;;5.16;57.28
46778;BME280;32536;47.128;8.746;2024-01-07T07:14:39;90832.91;;;5.19;57.20
46778;BME280;32536;47.128;8.746;2024-01-07T07:17:06;90833.66;;;5.20;57.60
46778;BME280;32536;47.128;8.746;2024-01-07T07:19:32;90830.22;;;5.23;57.68
46778;BME280;32536;47.128;8.746;2024-01-07T07:21:59;90833.28;;;5.21;57.36
46778;BME280;32536;47.128;8.746;2024-01-07T07:24:26;90836.31;;;5.20;57.30
46778;BME280;32536;47.128;8.746;2024-01-07T07:26:53;90843.91;;;5.18;57.20
46778;BME280;32536;47.128;8.746;2024-01-07T07:29:19;90841.63;;;5.16;57.29
46778;BME280;32536;47.128;8.746;2024-01-07T07:31:46;90844.31;;;5.12;56.92
46778;BME280;32536;47.128;8.746;2024-01-07T07:34:13;90836.03;;;5.07;57.17
46778;BME280;32536;47.128;8.746;2024-01-07T07:36:40;90839.03;;;5.05;57.67
46778;BME280;32536;47.128;8.746;2024-01-07T07:39:08;90838.69;;;5.03;57.60
46778;BME280;32536;47.128;8.746;2024-01-07T07:41:36;90847.41;;;5.04;57.48
46778;BME280;32536;47.128;8.746;2024-01-07T07:44:03;90848.16;;;5.08;57.48
46778;BME280;32536;47.128;8.746;2024-01-07T07:46:29;90842.84;;;5.08;57.73
46778;BME280;32536;47.128;8.746;2024-01-07T07:48:56;90841.31;;;5.10;57.71
46778;BME280;32536;47.128;8.746;2024-01-07T07:51:23;90852.66;;;5.11;57.74
46778;BME280;32536;47.128;8.746;2024-01-07T07:53:50;90848.13;;;5.11;57.53
46778;BME280;32536;47.128;8.746;2024-01-07T07:56:17;90857.97;;;5.11;57.58
46778;BME280;32536;47.128;8.746;2024-01-07T07:58:43;90853.44;;;5.11;57.40
46778;BME280;32536;47.128;8.746;2024-01-07T08:01:10;90852.25;;;5.16;57.97
46778;BME280;32536;47.128;8.746;2024-01-07T08:03:37;90853.75;;;5.21;57.71
46778;BME280;32536;47.128;8.746;2024-01-07T08:06:04;90852.59;;;5.22;57.53
46778;BME280;32536;47.128;8.746;2024-01-07T08:08:31;90848.03;;;5.22;57.59
46778;BME280;32536;47.128;8.746;2024-01-07T08:10:58;90865.50;;;5.20;57.61
46778;BME280;32536;47.128;8.746;2024-01-07T08:13:24;90853.03;;;5.17;57.56
46778;BME280;32536;47.128;8.746;2024-01-07T08:15:51;90864.03;;;5.15;57.62
46778;BME280;32536;47.128;8.746;2024-01-07T08:18:18;90859.88;;;5.10;57.17
46778;BME280;32536;47.128;8.746;2024-01-07T08:20:44;90867.09;;;5.06;57.77
46778;BME280;32536;47.128;8.746;2024-01-07T08:23:11;90878.88;;;5.05;57.70
46778;BME280;32536;47.128;8.746;2024-01-07T08:25:38;90869.00;;;5.06;57.53
46778;BME280;32536;47.128;8.746;2024-01-07T08:28:05;90870.13;;;5.08;57.90
46778;BME280;32536;47.128;8.746;2024-01-07T08:30:32;90881.47;;;5.12;57.87
46778;BME280;32536;47.128;8.746;2024-01-07T08:32:58;90879.56;;;5.17;57.64
46778;BME280;32536;47.128;8.746;2024-01-07T08:35:25;90886.41;;;5.18;57.15
46778;BME280;32536;47.128;8.746;2024-01-07T08:37:52;90885.66;;;5.13;57.38
46778;BME280;32536;47.128;8.746;2024-01-07T08:40:18;90884.13;;;5.12;57.62
46778;BME280;32536;47.128;8.746;2024-01-07T08:42:45;90886.47;;;5.03;57.21
46778;BME280;32536;47.128;8.746;2024-01-07T08:45:13;90883.44;;;5.01;57.14
46778;BME280;32536;47.128;8.746;2024-01-07T08:47:39;90881.94;;;4.96;57.56
46778;BME280;32536;47.128;8.746;2024-01-07T08:50:06;90888.41;;;4.95;57.30
46778;BME280;32536;47.128;8.746;2024-01-07T08:52:33;90883.50;;;4.90;57.26
46778;BME280;32536;47.128;8.746;2024-01-07T08:55:01;90893.38;;;4.86;57.33
46778;BME280;32536;47.128;8.746;2024-01-07T08:57:32;90892.63;;;4.78;57.42
46778;BME280;32536;47.128;8.746;2024-01-07T08:59:59;90898.00;;;4.71;57.77
46778;BME280;32536;47.128;8.746;2024-01-07T09:02:25;90895.38;;;4.68;57.87
46778;BME280;32536;47.128;8.746;2024-01-07T09:04:52;90898.00;;;4.68;57.87
46778;BME280;32536;47.128;8.746;2024-01-07T09:07:19;90897.25;;;4.67;57.94
46778;BME280;32536;47.128;8.746;2024-01-07T09:09:46;90898.38;;;4.66;57.87
46778;BME280;32536;47.128;8.746;2024-01-07T09:12:13;90902.56;;;4.67;57.76
46778;BME280;32536;47.128;8.746;2024-01-07T09:14:40;90911.63;;;4.70;57.97
46778;BME280;32536;47.128;8.746;2024-01-07T09:17:07;90908.63;;;4.71;57.73
46778;BME280;32536;47.128;8.746;2024-01-07T09:19:33;90912.75;;;4.72;57.80
46778;BME280;32536;47.128;8.746;2024-01-07T09:22:00;90913.53;;;4.73;57.84
46778;BME280;32536;47.128;8.746;2024-01-07T09:24:27;90913.91;;;4.75;58.35
46778;BME280;32536;47.128;8.746;2024-01-07T09:26:55;90916.19;;;4.73;57.65
46778;BME280;32536;47.128;8.746;2024-01-07T09:29:22;90911.63;;;4.70;57.59
46778;BME280;32536;47.128;8.746;2024-01-07T09:31:49;90920.38;;;4.70;57.80
46778;BME280;32536;47.128;8.746;2024-01-07T09:34:16;90922.22;;;4.73;57.65
46778;BME280;32536;47.128;8.746;2024-01-07T09:36:43;90919.22;;;4.75;57.78
46778;BME280;32536;47.128;8.746;2024-01-07T09:39:10;90924.88;;;4.73;57.64
46778;BME280;32536;47.128;8.746;2024-01-07T09:41:37;90930.56;;;4.75;57.63
46778;BME280;32536;47.128;8.746;2024-01-07T09:44:06;90929.84;;;4.75;57.62
46778;BME280;32536;47.128;8.746;2024-01-07T09:46:34;90925.66;;;4.74;57.53
46778;BME280;32536;47.128;8.746;2024-01-07T09:49:03;90923.00;;;4.74;57.47
46778;BME280;32536;47.128;8.746;2024-01-07T09:51:35;90922.22;;;4.73;57.48
46778;BME280;32536;47.128;8.746;2024-01-07T09:54:03;90927.19;;;4.75;57.27
46778;BME280;32536;47.128;8.746;2024-01-07T09:56:39;90924.16;;;4.73;57.60
46778;BME280;32536;47.128;8.746;2024-01-07T09:59:08;90931.34;;;4.72;57.51
46778;BME280;32536;47.128;8.746;2024-01-07T10:01:36;90928.31;;;4.70;57.40
46778;BME280;32536;47.128;8.746;2024-01-07T10:04:03;90929.47;;;4.65;57.57
46778;BME280;32536;47.128;8.746;2024-01-07T10:06:31;90928.34;;;4.63;57.63
46778;BME280;32536;47.128;8.746;2024-01-07T10:08:58;90934.41;;;4.56;57.78
46778;BME280;32536;47.128;8.746;2024-01-07T10:11:25;90928.78;;;4.47;57.72
46778;BME280;32536;47.128;8.746;2024-01-07T10:13:53;90929.53;;;4.40;57.79
46778;BME280;32536;47.128;8.746;2024-01-07T10:16:20;90926.53;;;4.35;57.89
46778;BME280;32536;47.128;8.746;2024-01-07T10:18:47;90925.78;;;4.30;58.26
46778;BME280;32536;47.128;8.746;2024-01-07T10:21:13;90923.09;;;4.34;58.16
46778;BME280;32536;47.128;8.746;2024-01-07T10:23:40;90927.28;;;4.35;58.01
46778;BME280;32536;47.128;8.746;2024-01-07T10:26:07;90917.06;;;4.33;58.22
46778;BME280;32536;47.128;8.746;2024-01-07T10:28:34;90923.09;;;4.34;58.29
46778;BME280;32536;47.128;8.746;2024-01-07T10:31:00;90921.97;;;4.39;58.25
46778;BME280;32536;47.128;8.746;2024-01-07T10:33:31;90918.91;;;4.44;58.07
46778;BME280;32536;47.128;8.746;2024-01-07T10:36:02;90924.22;;;4.47;58.04
46778;BME280;32536;47.128;8.746;2024-01-07T10:38:32;90914.72;;;4.50;58.28
46778;BME280;32536;47.128;8.746;2024-01-07T10:40:59;90915.13;;;4.52;58.25
46778;BME280;32536;47.128;8.746;2024-01-07T10:43:36;90918.88;;;4.55;58.37
46778;BME280;32536;47.128;8.746;2024-01-07T10:46:04;90918.88;;;4.58;57.99
46778;BME280;32536;47.128;8.746;2024-01-07T10:48:31;90921.91;;;4.64;58.06
46778;BME280;32536;47.128;8.746;2024-01-07T10:51:00;90913.94;;;4.68;57.92
46778;BME280;32536;47.128;8.746;2024-01-07T10:53:28;90919.97;;;4.72;57.96
46778;BME280;32536;47.128;8.746;2024-01-07T10:56:02;90919.97;;;4.75;57.72
46778;BME280;32536;47.128;8.746;2024-01-07T10:58:33;90915.03;;;4.74;57.87
46778;BME280;32536;47.128;8.746;2024-01-07T11:01:02;90910.88;;;4.73;57.81
46778;BME280;32536;47.128;8.746;2024-01-07T11:04:17;90904.03;;;4.75;57.96
46778;BME280;32536;47.128;8.746;2024-01-07T11:07:05;90916.91;;;4.77;58.06
46778;BME280;32536;47.128;8.746;2024-01-07T11:12:11;90910.84;;;4.80;57.68
46778;BME280;32536;47.128;8.746;2024-01-07T11:14:40;90912.00;;;4.79;57.51
46778;BME280;32536;47.128;8.746;2024-01-07T11:17:11;90910.09;;;4.72;57.65
46778;BME280;32536;47.128;8.746;2024-01-07T11:19:50;90907.88;;;4.60;57.67
46778;BME280;32536;47.128;8.746;2024-01-07T11:22:25;90912.06;;;4.54;57.83
46778;BME280;32536;47.128;8.746;2024-01-07T11:24:59;90905.25;;;4.49;58.09
46778;BME280;32536;47.128;8.746;2024-01-07T11:27:30;90904.91;;;4.51;58.30
46778;BME280;32536;47.128;8.746;2024-01-07T11:32:35;90903.38;;;4.49;58.09
46778;BME280;32536;47.128;8.746;2024-01-07T11:35:03;90902.25;;;4.51;58.12
46778;BME280;32536;47.128;8.746;2024-01-07T11:37:30;90897.69;;;4.51;58.00
46778;BME280;32536;47.128;8.746;2024-01-07T11:39:57;90900.34;;;4.51;58.41
46778;BME280;32536;47.128;8.746;2024-01-07T11:42:24;90903.72;;;4.52;57.82
46778;BME280;32536;47.128;8.746;2024-01-07T11:44:53;90896.94;;;4.51;58.32
46778;BME280;32536;47.128;8.746;2024-01-07T11:47:22;90899.19;;;4.52;58.10
46778;BME280;32536;47.128;8.746;2024-01-07T11:49:49;90893.88;;;4.56;58.01
46778;BME280;32536;47.128;8.746;2024-01-07T11:52:16;90896.53;;;4.56;58.12
46778;BME280;32536;47.128;8.746;2024-01-07T11:54:44;90894.25;;;4.58;58.06
46778;BME280;32536;47.128;8.746;2024-01-07T11:57:12;90896.50;;;4.63;58.10
46778;BME280;32536;47.128;8.746;2024-01-07T11:59:39;90899.91;;;4.67;57.77
46778;BME280;32536;47.128;8.746;2024-01-07T12:02:07;90894.63;;;4.60;57.86
46778;BME280;32536;47.128;8.746;2024-01-07T12:04:34;90894.28;;;4.54;57.87
46778;BME280;32536;47.128;8.746;2024-01-07T12:07:01;90895.81;;;4.48;57.95
46778;BME280;32536;47.128;8.746;2024-01-07T12:09:29;90904.53;;;4.45;58.09
46778;BME280;32536;47.128;8.746;2024-01-07T12:11:56;90896.97;;;4.43;57.85
46778;BME280;32536;47.128;8.746;2024-01-07T12:14:23;90892.41;;;4.40;58.30
46778;BME280;32536;47.128;8.746;2024-01-07T12:16:50;90895.84;;;4.37;58.31
46778;BME280;32536;47.128;8.746;2024-01-07T12:19:17;90894.72;;;4.31;58.06
46778;BME280;32536;47.128;8.746;2024-01-07T12:21:45;90895.84;;;4.30;58.05
46778;BME280;32536;47.128;8.746;2024-01-07T12:24:13;90899.25;;;4.27;58.14
46778;BME280;32536;47.128;8.746;2024-01-07T12:26:40;90896.63;;;4.23;58.28
46778;BME280;32536;47.128;8.746;2024-01-07T12:29:07;90894.75;;;4.20;58.24
46778;BME280;32536;47.128;8.746;2024-01-07T12:31:36;90895.50;;;4.21;58.46
46778;BME280;32536;47.128;8.746;2024-01-07T12:34:04;90898.53;;;4.23;58.61
46778;BME280;32536;47.128;8.746;2024-01-07T12:36:31;90893.59;;;4.25;58.73
46778;BME280;32536;47.128;8.746;2024-01-07T12:38:58;90890.16;;;4.28;58.79
46778;BME280;32536;47.128;8.746;2024-01-07T12:41:25;90896.22;;;4.28;58.22
46778;BME280;32536;47.128;8.746;2024-01-07T12:43:52;90893.97;;;4.27;58.56
46778;BME280;32536;47.128;8.746;2024-01-07T12:46:19;90892.44;;;4.26;58.35
46778;BME280;32536;47.128;8.746;2024-01-07T12:48:46;90899.25;;;4.27;58.54
46778;BME280;32536;47.128;8.746;2024-01-07T12:51:13;90898.91;;;4.25;58.39
46778;BME280;32536;47.128;8.746;2024-01-07T12:53:40;90896.25;;;4.21;58.61
46778;BME280;32536;47.128;8.746;2024-01-07T12:56:06;90900.03;;;4.20;58.46
46778;BME280;32536;47.128;8.746;2024-01-07T12:58:33;90901.19;;;4.19;58.63
46778;BME280;32536;47.128;8.746;2024-01-07T13:01:00;90903.84;;;4.19;58.61
46778;BME280;32536;47.128;8.746;2024-01-07T13:03:27;90901.91;;;4.20;58.77
46778;BME280;32536;47.128;8.746;2024-01-07T13:05:54;90905.69;;;4.22;58.66
46778;BME280;32536;47.128;8.746;2024-01-07T13:08:21;90901.56;;;4.25;58.70
46778;BME280;32536;47.128;8.746;2024-01-07T13:10:48;90899.25;;;4.23;58.47
46778;BME280;32536;47.128;8.746;2024-01-07T13:13:15;90908.75;;;4.21;58.09
46778;BME280;32536;47.128;8.746;2024-01-07T13:15:42;90911.00;;;4.19;58.41